East Thetford, Vermont
Current Conditions -  °F | °C
As of 9:53 AM on Thursday 23 Oct 2014 (Local Time) from KLEB Reporting Station
Moderate Rain Moderate Rain  
Wind Chill: 45°   Ceiling: 1700
Heat Index: 49°   Visibility: 4mi
Dew Point: 43°   Wind: 8mph
Humidity: 80%   Direction: 10°N
Pressure: 29.84"   Gusts: NA
Location:  43.81°N, 72.19°W
Report Text: KLEB 231353Z 01007KT 4SM RA OVC017 09/06 A2984 RMK AO2 RAB06 SLP106 P0005 T00940061
Loading
Personal Weather Stations






























Interactive Weather Map New forecast layout! Learn more

10-Day Weather Forecast

Advertisements
Track Severe Weather on mobile